sensor_id;sensor_type;location;lat;lon;timestamp;pressure;altitude;pressure_sealevel;temperature;humidity
84647;BME280;74876;52.404;16.896;2024-01-16T00:00:09;98879.0;;;-1.79;71.27
84647;BME280;74876;52.404;16.896;2024-01-16T00:20:09;98893.0;;;-1.68;70.65
84647;BME280;74876;52.404;16.896;2024-01-16T00:35:09;98912.0;;;-2.13;72.44
84647;BME280;74876;52.404;16.896;2024-01-16T00:50:09;98942.0;;;-2.23;73.16
84647;BME280;74876;52.404;16.896;2024-01-16T01:05:09;98967.0;;;-2.2;72.55
84647;BME280;74876;52.404;16.896;2024-01-16T01:20:09;98992.0;;;-2.16;72.1
84647;BME280;74876;52.404;16.896;2024-01-16T01:35:09;99007.0;;;-2.06;72.34
84647;BME280;74876;52.404;16.896;2024-01-16T01:55:09;99038.0;;;-1.75;71.95
84647;BME280;74876;52.404;16.896;2024-01-16T06:21:58;99325.0;;;3.05;98.69
84647;BME280;74876;52.404;16.896;2024-01-16T06:22:26;99320.0;;;3.73;98.15
84647;BME280;74876;52.404;16.896;2024-01-16T06:35:09;99352.0;;;1.13;60.45
84647;BME280;74876;52.404;16.896;2024-01-16T06:50:09;99383.0;;;-0.66;64.25
84647;BME280;74876;52.404;16.896;2024-01-16T07:05:09;99421.0;;;-1.98;68.46
84647;BME280;74876;52.404;16.896;2024-01-16T07:20:09;99466.0;;;-2.48;71.16
84647;BME280;74876;52.404;16.896;2024-01-16T07:35:09;99484.0;;;-2.67;72.09
84647;BME280;74876;52.404;16.896;2024-01-16T07:50:09;99494.0;;;-2.67;73.0
84647;BME280;74876;52.404;16.896;2024-01-16T08:05:09;99515.0;;;-2.59;72.65
84647;BME280;74876;52.404;16.896;2024-01-16T08:20:09;99530.0;;;-2.32;72.35
84647;BME280;74876;52.404;16.896;2024-01-16T08:35:09;99563.0;;;-2.12;70.94
84647;BME280;74876;52.404;16.896;2024-01-16T08:50:09;99575.0;;;-1.93;69.4
84647;BME280;74876;52.404;16.896;2024-01-16T09:05:09;99586.0;;;-1.87;68.67
84647;BME280;74876;52.404;16.896;2024-01-16T09:20:09;99593.0;;;-1.9;66.55
84647;BME280;74876;52.404;16.896;2024-01-16T09:35:09;99608.0;;;-1.98;67.41
84647;BME280;74876;52.404;16.896;2024-01-16T09:50:09;99630.0;;;-1.72;67.51
84647;BME280;74876;52.404;16.896;2024-01-16T10:05:09;99649.0;;;-1.49;67.27
84647;BME280;74876;52.404;16.896;2024-01-16T10:20:09;99656.0;;;-1.38;66.19
84647;BME280;74876;52.404;16.896;2024-01-16T10:35:09;99641.0;;;-1.15;66.14
84647;BME280;74876;52.404;16.896;2024-01-16T10:50:09;99655.0;;;-1.31;66.22
84647;BME280;74876;52.404;16.896;2024-01-16T11:15:09;99655.0;;;-1.22;63.33
84647;BME280;74876;52.404;16.896;2024-01-16T11:30:09;99660.0;;;-0.35;62.27
84647;BME280;74876;52.404;16.896;2024-01-16T11:45:09;99681.0;;;-0.34;60.88
84647;BME280;74876;52.404;16.896;2024-01-16T12:00:09;99677.0;;;-0.48;62.11
84647;BME280;74876;52.404;16.896;2024-01-16T12:15:09;99680.0;;;-0.57;62.85
84647;BME280;74876;52.404;16.896;2024-01-16T12:30:10;99683.0;;;-0.62;63.16
84647;BME280;74876;52.404;16.896;2024-01-16T12:45:10;99687.0;;;-0.86;64.48
84647;BME280;74876;52.404;16.896;2024-01-16T13:00:10;99676.0;;;-0.57;65.03
84647;BME280;74876;52.404;16.896;2024-01-16T13:15:09;99687.0;;;0.8;60.8
84647;BME280;74876;52.404;16.896;2024-01-16T13:30:10;99694.0;;;-0.27;65.86
84647;BME280;74876;52.404;16.896;2024-01-16T13:45:10;99709.0;;;-0.93;70.69
84647;BME280;74876;52.404;16.896;2024-01-16T14:00:09;99712.0;;;-1.15;73.1
84647;BME280;74876;52.404;16.896;2024-01-16T14:15:09;99717.0;;;-1.34;73.93
84647;BME280;74876;52.404;16.896;2024-01-16T14:30:09;99724.0;;;-1.55;75.44
84647;BME280;74876;52.404;16.896;2024-01-16T14:45:09;99725.0;;;-1.71;77.07
84647;BME280;74876;52.404;16.896;2024-01-16T15:00:09;99739.0;;;-1.73;78.82
84647;BME280;74876;52.404;16.896;2024-01-16T19:35:09;99690.0;;;-1.07;89.5
84647;BME280;74876;52.404;16.896;2024-01-16T19:55:10;99718.0;;;-1.19;91.39
84647;BME280;74876;52.404;16.896;2024-01-16T20:10:09;99720.0;;;-1.13;91.05
84647;BME280;74876;52.404;16.896;2024-01-16T20:25:10;99727.0;;;-1.11;91.1
84647;BME280;74876;52.404;16.896;2024-01-16T20:40:09;99738.0;;;-1.16;91.42
84647;BME280;74876;52.404;16.896;2024-01-16T20:55:09;99748.0;;;-1.17;91.53
84647;BME280;74876;52.404;16.896;2024-01-16T21:10:10;99745.0;;;-1.25;91.73
84647;BME280;74876;52.404;16.896;2024-01-16T21:25:10;99728.0;;;-1.25;91.94
84647;BME280;74876;52.404;16.896;2024-01-16T21:40:10;99739.0;;;-1.2;91.89
84647;BME280;74876;52.404;16.896;2024-01-16T21:55:10;99731.0;;;-1.19;91.43
84647;BME280;74876;52.404;16.896;2024-01-16T22:10:09;99718.0;;;-1.2;91.04
84647;BME280;74876;52.404;16.896;2024-01-16T22:25:09;99738.0;;;-1.25;90.67
84647;BME280;74876;52.404;16.896;2024-01-16T22:40:09;99741.0;;;-1.21;90.29
84647;BME280;74876;52.404;16.896;2024-01-16T22:55:09;99726.0;;;-1.17;89.99
84647;BME280;74876;52.404;16.896;2024-01-16T23:10:09;99711.0;;;-1.2;90.16
84647;BME280;74876;52.404;16.896;2024-01-16T23:35:09;99703.0;;;-1.25;91.13
84647;BME280;74876;52.404;16.896;2024-01-16T23:50:09;99703.0;;;-1.31;91.21
